»·PEaware :: WJA488 KBOI-KSFO

WJA488 :: KBOI-KSFO

FLIGHT INFORMATION

Flight Status: Arrived
Operator:
Westjet Airlines
More flights by this operator :: More flights under this callsign
Pilot: Ulrik N. (13596)
Aircraft: BOEING 737-800
(B738)
More flights by this aircraft type
Origin: KBOI Boise Air Terminal/Gowen
United States
Destination: KSFO San Francisco Intl
United States
More flights between these airports :: More routes between these airports
Route: BOI3 HYVAL REO LEGGS BDEGA2
File this flight plan on PilotEdge
Remarks:
Altitude:
(Current/Filed)
38,000ft
Speed:
(Current/Filed)
436kts
Departed: 07-Aug-18 06:57 PM
Arrived: 07-Aug-18 08:25 PM
Distance/Time
Traveled:
454nm/1:28
Distance/Time
To Go:
Arrived

Flight Plot

Page will automatically refresh every two minutes.

Flight plan parsing failed; only flown route is shown


Map Options




Map Legend


Flown Route
Filed Route
Departure Airport
Arrival Airport
Navaid (VOR, NDB)
Fix

Horizontal Profiles

Position Reports

Time Latitude Longitude Heading Altitude Ground
Speed
07-Aug-18 18:34 43.566923 -116.219698 29 2846ft 0kts
07-Aug-18 18:35 43.566923 -116.219698 29 2846ft 0kts
07-Aug-18 18:36 43.566923 -116.219698 29 2846ft 0kts
07-Aug-18 18:37 43.566923 -116.219698 29 2846ft 0kts
07-Aug-18 18:38 43.566923 -116.219698 29 2846ft 0kts
07-Aug-18 18:39 43.566923 -116.219698 29 2846ft 0kts
07-Aug-18 18:40 43.566923 -116.219698 29 2846ft 0kts
07-Aug-18 18:41 43.566923 -116.219698 29 2846ft 0kts
07-Aug-18 18:42 43.566923 -116.219698 29 2846ft 0kts
07-Aug-18 18:43 43.566923 -116.219698 29 2846ft 0kts
07-Aug-18 18:44 43.566923 -116.219698 29 2846ft 0kts
07-Aug-18 18:45 43.566923 -116.219698 29 2846ft 0kts
07-Aug-18 18:46 43.566923 -116.219698 29 2846ft 0kts
07-Aug-18 18:47 43.566923 -116.219698 29 2846ft 0kts
07-Aug-18 18:48 43.566923 -116.219698 29 2846ft 0kts
07-Aug-18 18:49 43.566787 -116.219804 34 2846ft 2kts
07-Aug-18 18:50 43.566566 -116.220533 99 2846ft 2kts
07-Aug-18 18:51 43.566633 -116.220801 116 2846ft 0kts
07-Aug-18 18:52 43.566633 -116.220801 116 2846ft 0kts
07-Aug-18 18:53 43.566614 -116.220747 116 2846ft 2kts
07-Aug-18 18:54 43.565180 -116.218649 115 2846ft 17kts
07-Aug-18 18:55 43.562925 -116.212062 115 2846ft 17kts
07-Aug-18 18:56 43.561103 -116.206702 115 2846ft 14kts
07-Aug-18 18:57 43.559355 -116.202434 190 2846ft 8kts
07-Aug-18 18:58 43.559893 -116.206719 295 2846ft 64kts
07-Aug-18 18:59 43.575877 -116.254647 285 3807ft 158kts
07-Aug-18 19:00 43.595396 -116.320081 294 4770ft 212kts
07-Aug-18 19:01 43.585527 -116.399606 223 5722ft 274kts
07-Aug-18 19:02 43.526674 -116.470083 222 8226ft 287kts
07-Aug-18 19:03 43.464837 -116.543402 222 10258ft 311kts
07-Aug-18 19:04 43.396589 -116.624085 222 12250ft 333kts
07-Aug-18 19:05 43.326004 -116.707208 222 14535ft 343kts
07-Aug-18 19:06 43.252556 -116.793420 222 16801ft 354kts
07-Aug-18 19:07 43.176699 -116.882165 222 18927ft 364kts
07-Aug-18 19:08 43.105329 -116.980658 233 21004ft 369kts
07-Aug-18 19:09 43.041682 -117.091877 233 22838ft 377kts
07-Aug-18 19:10 42.976599 -117.204973 232 23044ft 374kts
07-Aug-18 19:11 42.911539 -117.317102 231 23668ft 380kts
07-Aug-18 19:12 42.844187 -117.432750 233 24694ft 406kts
07-Aug-18 19:13 42.773399 -117.554480 234 26256ft 413kts
07-Aug-18 19:14 42.702103 -117.677217 233 27706ft 419kts
07-Aug-18 19:15 42.629841 -117.801782 234 29127ft 423kts
07-Aug-18 19:16 42.548519 -117.915622 219 30771ft 421kts
07-Aug-18 19:17 42.456516 -118.010647 220 32353ft 413kts
07-Aug-18 19:18 42.366765 -118.104013 220 33769ft 405kts
07-Aug-18 19:19 42.278278 -118.196012 220 34918ft 401kts
07-Aug-18 19:20 42.190319 -118.287247 220 35911ft 398kts
07-Aug-18 19:21 42.102771 -118.377804 220 36759ft 397kts
07-Aug-18 19:22 42.015331 -118.467988 220 37489ft 397kts
07-Aug-18 19:23 41.927789 -118.558010 220 38073ft 401kts
07-Aug-18 19:24 41.838202 -118.649904 220 38075ft 420kts
07-Aug-18 19:25 41.743842 -118.746311 219 38078ft 438kts
07-Aug-18 19:26 41.646497 -118.845377 219 38066ft 439kts
07-Aug-18 19:27 41.550191 -118.943044 219 38064ft 434kts
07-Aug-18 19:28 41.454629 -119.039658 219 38063ft 431kts
07-Aug-18 19:29 41.359381 -119.135637 219 38060ft 430kts
07-Aug-18 19:30 41.264077 -119.231357 219 38055ft 431kts
07-Aug-18 19:31 41.168443 -119.327068 219 38033ft 431kts
07-Aug-18 19:32 41.073172 -119.422097 219 38035ft 432kts
07-Aug-18 19:33 40.976724 -119.517982 219 38050ft 438kts
07-Aug-18 19:34 40.880905 -119.612868 219 38051ft 438kts
07-Aug-18 19:35 40.784010 -119.708446 218 38056ft 438kts
07-Aug-18 19:36 40.686431 -119.804338 218 38055ft 438kts
07-Aug-18 19:37 40.589049 -119.899697 218 38055ft 438kts
07-Aug-18 19:38 40.491752 -119.994635 218 38055ft 438kts
07-Aug-18 19:39 40.393896 -120.089771 218 38054ft 438kts
07-Aug-18 19:40 40.296532 -120.184087 218 38055ft 438kts
07-Aug-18 19:41 40.198778 -120.278433 218 38054ft 438kts
07-Aug-18 19:42 40.100828 -120.372620 218 38062ft 438kts
07-Aug-18 19:43 40.002808 -120.466528 218 38059ft 438kts
07-Aug-18 19:44 39.905062 -120.559827 218 38052ft 438kts
07-Aug-18 19:45 39.809149 -120.651047 218 38067ft 437kts
07-Aug-18 19:46 39.710927 -120.744084 218 38156ft 439kts
07-Aug-18 19:47 39.612555 -120.836915 218 38138ft 439kts
07-Aug-18 19:48 39.514042 -120.929536 218 38081ft 438kts
07-Aug-18 19:49 39.415689 -121.021665 218 38054ft 437kts
07-Aug-18 19:50 39.321110 -121.117479 230 38070ft 429kts
07-Aug-18 19:51 39.244739 -121.235061 232 38037ft 427kts
07-Aug-18 19:52 39.168756 -121.352079 232 37933ft 427kts
07-Aug-18 19:53 39.092271 -121.469118 232 37851ft 427kts
07-Aug-18 19:54 39.015924 -121.585411 232 37854ft 428kts
07-Aug-18 19:55 38.939736 -121.700979 231 37859ft 434kts
07-Aug-18 19:56 38.863974 -121.815399 231 37859ft 437kts
07-Aug-18 19:57 38.785262 -121.933805 231 35908ft 439kts
07-Aug-18 19:58 38.706076 -122.052471 231 32703ft 443kts
07-Aug-18 19:59 38.625992 -122.172021 231 29636ft 439kts
07-Aug-18 20:00 38.547802 -122.288292 231 27107ft 425kts
07-Aug-18 20:01 38.472164 -122.400382 230 24617ft 413kts
07-Aug-18 20:02 38.402480 -122.503765 230 22855ft 393kts
07-Aug-18 20:03 38.331112 -122.609670 230 21288ft 393kts
07-Aug-18 20:04 38.261206 -122.713062 229 19763ft 383kts
07-Aug-18 20:05 38.167633 -122.752875 167 18196ft 372kts
07-Aug-18 20:06 38.068497 -122.723576 165 16638ft 360kts
07-Aug-18 20:07 37.971767 -122.695092 166 15193ft 354kts
07-Aug-18 20:08 37.881815 -122.656724 140 13866ft 341kts
07-Aug-18 20:09 37.810438 -122.580696 138 12474ft 327kts
07-Aug-18 20:10 37.743330 -122.509101 138 11191ft 307kts
07-Aug-18 20:11 37.681952 -122.443621 138 11017ft 292kts
07-Aug-18 20:12 37.619879 -122.377505 138 11008ft 292kts
07-Aug-18 20:13 37.550089 -122.327015 152 10033ft 290kts
07-Aug-18 20:14 37.478919 -122.281651 152 8758ft 286kts
07-Aug-18 20:15 37.422707 -122.216889 114 7391ft 282kts
07-Aug-18 20:16 37.391311 -122.130505 113 6166ft 259kts
07-Aug-18 20:17 37.371725 -122.055158 61 6025ft 217kts
07-Aug-18 20:18 37.426509 -122.036303 344 6013ft 226kts
07-Aug-18 20:19 37.484010 -122.061750 325 5070ft 219kts
07-Aug-18 20:20 37.531420 -122.107543 304 3963ft 199kts
07-Aug-18 20:21 37.552378 -122.166784 293 3096ft 175kts
07-Aug-18 20:22 37.570539 -122.221982 292 2316ft 169kts
07-Aug-18 20:23 37.585677 -122.274768 287 1642ft 143kts
07-Aug-18 20:24 37.596977 -122.320724 291 735ft 134kts
07-Aug-18 20:25 37.613006 -122.361459 298 40ft 131kts
07-Aug-18 20:26 37.618955 -122.378298 268 20ft 5kts
07-Aug-18 20:27 37.619457 -122.381803 301 20ft 19kts
07-Aug-18 20:28 37.619553 -122.383541 259 20ft 0kts

Navigation Log

Ident Type
Flight plan parsing failed, navigation log unavailable